sensor_id;sensor_type;location;lat;lon;timestamp;P1;durP1;ratioP1;P2;durP2;ratioP2
2001;SDS011;1003;48.002;7.788;2022-07-24T00:01:29;9.33;;;8.27;;
2001;SDS011;1003;48.002;7.788;2022-07-24T00:03:56;11.13;;;8.73;;
2001;SDS011;1003;48.002;7.788;2022-07-24T00:06:23;11.47;;;8.50;;
2001;SDS011;1003;48.002;7.788;2022-07-24T00:08:50;8.63;;;7.70;;
2001;SDS011;1003;48.002;7.788;2022-07-24T00:11:19;10.07;;;8.50;;
2001;SDS011;1003;48.002;7.788;2022-07-24T00:13:46;10.00;;;8.20;;
2001;SDS011;1003;48.002;7.788;2022-07-24T00:16:14;11.30;;;8.80;;
2001;SDS011;1003;48.002;7.788;2022-07-24T00:18:41;10.97;;;8.07;;
2001;SDS011;1003;48.002;7.788;2022-07-24T00:21:08;10.67;;;8.43;;
2001;SDS011;1003;48.002;7.788;2022-07-24T00:23:35;9.87;;;8.57;;
2001;SDS011;1003;48.002;7.788;2022-07-24T00:26:02;10.27;;;8.63;;
2001;SDS011;1003;48.002;7.788;2022-07-24T00:28:31;10.37;;;8.70;;
2001;SDS011;1003;48.002;7.788;2022-07-24T00:31:00;11.23;;;9.07;;
2001;SDS011;1003;48.002;7.788;2022-07-24T00:33:28;10.50;;;9.03;;
2001;SDS011;1003;48.002;7.788;2022-07-24T00:35:55;10.57;;;8.97;;
2001;SDS011;1003;48.002;7.788;2022-07-24T00:38:22;11.00;;;8.97;;
2001;SDS011;1003;48.002;7.788;2022-07-24T00:40:49;9.67;;;8.67;;
2001;SDS011;1003;48.002;7.788;2022-07-24T00:43:16;11.37;;;8.87;;
2001;SDS011;1003;48.002;7.788;2022-07-24T00:45:46;10.10;;;8.83;;
2001;SDS011;1003;48.002;7.788;2022-07-24T00:48:13;11.03;;;9.27;;
2001;SDS011;1003;48.002;7.788;2022-07-24T00:50:41;11.30;;;9.50;;
2001;SDS011;1003;48.002;7.788;2022-07-24T00:53:10;11.67;;;9.47;;
2001;SDS011;1003;48.002;7.788;2022-07-24T00:55:37;12.07;;;9.63;;
2001;SDS011;1003;48.002;7.788;2022-07-24T00:58:05;9.53;;;8.50;;
2001;SDS011;1003;48.002;7.788;2022-07-24T01:00:33;11.63;;;8.83;;
2001;SDS011;1003;48.002;7.788;2022-07-24T01:03:01;10.90;;;8.80;;
2001;SDS011;1003;48.002;7.788;2022-07-24T01:05:29;10.53;;;9.13;;
2001;SDS011;1003;48.002;7.788;2022-07-24T01:07:56;10.17;;;8.83;;
2001;SDS011;1003;48.002;7.788;2022-07-24T01:10:23;11.07;;;9.13;;
2001;SDS011;1003;48.002;7.788;2022-07-24T01:12:50;9.97;;;8.73;;
2001;SDS011;1003;48.002;7.788;2022-07-24T01:15:18;10.20;;;8.77;;
2001;SDS011;1003;48.002;7.788;2022-07-24T01:17:45;12.17;;;9.27;;
2001;SDS011;1003;48.002;7.788;2022-07-24T01:20:13;11.00;;;9.23;;
2001;SDS011;1003;48.002;7.788;2022-07-24T01:22:42;11.53;;;9.37;;
2001;SDS011;1003;48.002;7.788;2022-07-24T01:25:09;11.33;;;8.57;;
2001;SDS011;1003;48.002;7.788;2022-07-24T01:27:37;9.87;;;8.27;;
2001;SDS011;1003;48.002;7.788;2022-07-24T01:30:04;10.53;;;8.90;;
2001;SDS011;1003;48.002;7.788;2022-07-24T01:32:33;10.90;;;8.77;;
2001;SDS011;1003;48.002;7.788;2022-07-24T01:35:00;9.30;;;8.30;;
2001;SDS011;1003;48.002;7.788;2022-07-24T01:37:27;9.97;;;8.43;;
2001;SDS011;1003;48.002;7.788;2022-07-24T01:39:55;11.23;;;8.57;;
2001;SDS011;1003;48.002;7.788;2022-07-24T01:42:22;9.20;;;8.17;;
2001;SDS011;1003;48.002;7.788;2022-07-24T01:44:50;12.57;;;8.90;;
2001;SDS011;1003;48.002;7.788;2022-07-24T01:47:17;10.17;;;8.20;;
2001;SDS011;1003;48.002;7.788;2022-07-24T01:49:44;9.97;;;8.27;;
2001;SDS011;1003;48.002;7.788;2022-07-24T01:52:12;11.30;;;8.53;;
2001;SDS011;1003;48.002;7.788;2022-07-24T01:54:39;8.83;;;7.93;;
2001;SDS011;1003;48.002;7.788;2022-07-24T01:57:07;13.10;;;8.90;;
2001;SDS011;1003;48.002;7.788;2022-07-24T01:59:34;10.67;;;8.37;;
2001;SDS011;1003;48.002;7.788;2022-07-24T02:02:02;9.27;;;8.10;;
2001;SDS011;1003;48.002;7.788;2022-07-24T02:04:29;11.10;;;8.83;;
2001;SDS011;1003;48.002;7.788;2022-07-24T02:06:56;9.70;;;8.30;;
2001;SDS011;1003;48.002;7.788;2022-07-24T02:09:23;9.67;;;8.40;;
2001;SDS011;1003;48.002;7.788;2022-07-24T02:11:51;10.30;;;8.60;;
2001;SDS011;1003;48.002;7.788;2022-07-24T02:14:20;9.50;;;8.43;;
2001;SDS011;1003;48.002;7.788;2022-07-24T02:16:48;9.07;;;8.13;;
2001;SDS011;1003;48.002;7.788;2022-07-24T02:19:15;10.27;;;8.73;;
2001;SDS011;1003;48.002;7.788;2022-07-24T02:21:42;8.90;;;7.93;;
2001;SDS011;1003;48.002;7.788;2022-07-24T02:24:09;10.40;;;8.37;;
2001;SDS011;1003;48.002;7.788;2022-07-24T02:26:36;11.37;;;8.50;;
2001;SDS011;1003;48.002;7.788;2022-07-24T02:29:03;10.40;;;8.67;;
2001;SDS011;1003;48.002;7.788;2022-07-24T02:31:32;10.63;;;8.30;;
2001;SDS011;1003;48.002;7.788;2022-07-24T02:33:59;10.33;;;8.43;;
2001;SDS011;1003;48.002;7.788;2022-07-24T02:36:26;9.23;;;8.27;;
2001;SDS011;1003;48.002;7.788;2022-07-24T02:38:53;10.57;;;8.47;;
2001;SDS011;1003;48.002;7.788;2022-07-24T02:41:20;9.80;;;8.37;;
2001;SDS011;1003;48.002;7.788;2022-07-24T02:43:47;11.30;;;8.43;;
2001;SDS011;1003;48.002;7.788;2022-07-24T02:46:14;12.53;;;9.23;;
2001;SDS011;1003;48.002;7.788;2022-07-24T02:48:43;11.20;;;8.67;;
2001;SDS011;1003;48.002;7.788;2022-07-24T02:51:10;11.23;;;8.60;;
2001;SDS011;1003;48.002;7.788;2022-07-24T02:53:37;11.90;;;8.67;;
2001;SDS011;1003;48.002;7.788;2022-07-24T02:56:04;11.70;;;8.60;;
2001;SDS011;1003;48.002;7.788;2022-07-24T02:58:32;12.47;;;9.20;;
2001;SDS011;1003;48.002;7.788;2022-07-24T03:00:59;11.63;;;9.03;;
2001;SDS011;1003;48.002;7.788;2022-07-24T03:03:27;11.60;;;8.63;;
2001;SDS011;1003;48.002;7.788;2022-07-24T03:05:55;11.43;;;9.53;;
2001;SDS011;1003;48.002;7.788;2022-07-24T03:08:22;11.20;;;9.17;;
2001;SDS011;1003;48.002;7.788;2022-07-24T03:10:49;12.30;;;9.63;;
2001;SDS011;1003;48.002;7.788;2022-07-24T03:13:16;12.50;;;9.60;;
2001;SDS011;1003;48.002;7.788;2022-07-24T03:15:43;11.60;;;9.53;;
2001;SDS011;1003;48.002;7.788;2022-07-24T03:18:10;12.30;;;9.30;;
2001;SDS011;1003;48.002;7.788;2022-07-24T03:20:37;11.20;;;9.33;;
2001;SDS011;1003;48.002;7.788;2022-07-24T03:23:06;13.73;;;9.53;;
2001;SDS011;1003;48.002;7.788;2022-07-24T03:25:33;12.03;;;9.57;;
2001;SDS011;1003;48.002;7.788;2022-07-24T03:28:00;12.10;;;9.67;;
2001;SDS011;1003;48.002;7.788;2022-07-24T03:30:27;12.43;;;9.27;;
2001;SDS011;1003;48.002;7.788;2022-07-24T03:32:54;11.80;;;9.37;;
2001;SDS011;1003;48.002;7.788;2022-07-24T03:35:21;12.20;;;9.23;;
2001;SDS011;1003;48.002;7.788;2022-07-24T03:37:48;12.47;;;10.23;;
2001;SDS011;1003;48.002;7.788;2022-07-24T03:40:17;12.63;;;10.17;;
2001;SDS011;1003;48.002;7.788;2022-07-24T03:42:44;13.77;;;10.20;;
2001;SDS011;1003;48.002;7.788;2022-07-24T03:45:11;11.97;;;9.73;;
2001;SDS011;1003;48.002;7.788;2022-07-24T03:47:38;11.13;;;9.43;;
2001;SDS011;1003;48.002;7.788;2022-07-24T03:50:05;13.57;;;9.07;;
2001;SDS011;1003;48.002;7.788;2022-07-24T03:52:33;11.83;;;9.00;;
2001;SDS011;1003;48.002;7.788;2022-07-24T03:55:00;10.40;;;8.40;;
2001;SDS011;1003;48.002;7.788;2022-07-24T03:57:29;10.60;;;8.70;;
2001;SDS011;1003;48.002;7.788;2022-07-24T03:59:56;12.20;;;9.40;;
2001;SDS011;1003;48.002;7.788;2022-07-24T04:02:23;11.83;;;8.90;;
2001;SDS011;1003;48.002;7.788;2022-07-24T04:04:50;10.93;;;8.63;;
2001;SDS011;1003;48.002;7.788;2022-07-24T04:07:17;11.00;;;9.30;;
2001;SDS011;1003;48.002;7.788;2022-07-24T04:09:44;12.43;;;9.37;;
2001;SDS011;1003;48.002;7.788;2022-07-24T04:12:11;11.13;;;9.00;;
2001;SDS011;1003;48.002;7.788;2022-07-24T04:14:40;10.17;;;8.27;;
2001;SDS011;1003;48.002;7.788;2022-07-24T04:17:07;11.00;;;9.27;;
2001;SDS011;1003;48.002;7.788;2022-07-24T04:19:34;10.70;;;8.67;;
2001;SDS011;1003;48.002;7.788;2022-07-24T04:22:02;12.27;;;8.97;;
2001;SDS011;1003;48.002;7.788;2022-07-24T04:24:29;9.57;;;8.40;;
2001;SDS011;1003;48.002;7.788;2022-07-24T04:26:56;11.23;;;8.70;;
2001;SDS011;1003;48.002;7.788;2022-07-24T04:29:23;11.27;;;8.90;;
2001;SDS011;1003;48.002;7.788;2022-07-24T04:31:51;14.00;;;9.80;;
2001;SDS011;1003;48.002;7.788;2022-07-24T04:34:18;12.00;;;9.70;;
2001;SDS011;1003;48.002;7.788;2022-07-24T04:36:45;12.23;;;9.70;;
2001;SDS011;1003;48.002;7.788;2022-07-24T04:39:13;12.77;;;9.77;;
2001;SDS011;1003;48.002;7.788;2022-07-24T04:41:40;11.93;;;9.90;;
2001;SDS011;1003;48.002;7.788;2022-07-24T04:44:07;12.40;;;9.80;;
2001;SDS011;1003;48.002;7.788;2022-07-24T04:46:34;11.23;;;8.47;;
2001;SDS011;1003;48.002;7.788;2022-07-24T04:49:03;12.33;;;8.93;;
2001;SDS011;1003;48.002;7.788;2022-07-24T04:51:30;10.47;;;7.97;;
2001;SDS011;1003;48.002;7.788;2022-07-24T04:53:57;12.23;;;9.47;;
2001;SDS011;1003;48.002;7.788;2022-07-24T04:56:24;12.00;;;9.00;;
2001;SDS011;1003;48.002;7.788;2022-07-24T04:58:55;16.20;;;9.93;;
2001;SDS011;1003;48.002;7.788;2022-07-24T05:01:22;13.57;;;10.50;;
2001;SDS011;1003;48.002;7.788;2022-07-24T05:03:49;12.20;;;9.60;;
2001;SDS011;1003;48.002;7.788;2022-07-24T05:06:18;11.77;;;8.80;;
2001;SDS011;1003;48.002;7.788;2022-07-24T05:08:45;12.67;;;9.13;;
2001;SDS011;1003;48.002;7.788;2022-07-24T05:11:12;10.50;;;8.77;;
2001;SDS011;1003;48.002;7.788;2022-07-24T05:13:39;10.43;;;8.73;;
2001;SDS011;1003;48.002;7.788;2022-07-24T05:16:06;9.30;;;8.30;;
2001;SDS011;1003;48.002;7.788;2022-07-24T05:18:34;8.97;;;8.07;;
2001;SDS011;1003;48.002;7.788;2022-07-24T05:21:01;7.87;;;7.07;;
2001;SDS011;1003;48.002;7.788;2022-07-24T05:23:30;9.33;;;7.13;;
2001;SDS011;1003;48.002;7.788;2022-07-24T05:25:57;8.27;;;7.00;;
2001;SDS011;1003;48.002;7.788;2022-07-24T05:28:24;7.83;;;7.03;;
2001;SDS011;1003;48.002;7.788;2022-07-24T05:30:51;7.57;;;6.87;;
2001;SDS011;1003;48.002;7.788;2022-07-24T05:33:18;7.75;;;7.00;;
2001;SDS011;1003;48.002;7.788;2022-07-24T05:35:45;8.75;;;7.78;;
2001;SDS011;1003;48.002;7.788;2022-07-24T05:38:12;7.60;;;6.78;;
2001;SDS011;1003;48.002;7.788;2022-07-24T05:40:41;7.63;;;6.93;;
2001;SDS011;1003;48.002;7.788;2022-07-24T05:43:08;7.18;;;6.35;;
2001;SDS011;1003;48.002;7.788;2022-07-24T05:45:35;7.35;;;6.63;;
2001;SDS011;1003;48.002;7.788;2022-07-24T05:48:02;7.75;;;7.05;;
2001;SDS011;1003;48.002;7.788;2022-07-24T05:50:30;7.82;;;7.00;;
2001;SDS011;1003;48.002;7.788;2022-07-24T05:52:57;7.60;;;6.78;;
2001;SDS011;1003;48.002;7.788;2022-07-24T05:55:24;8.75;;;7.20;;
2001;SDS011;1003;48.002;7.788;2022-07-24T05:57:54;7.07;;;6.45;;
2001;SDS011;1003;48.002;7.788;2022-07-24T06:00:21;7.40;;;6.35;;
2001;SDS011;1003;48.002;7.788;2022-07-24T06:02:48;7.32;;;6.63;;
2001;SDS011;1003;48.002;7.788;2022-07-24T06:05:15;7.72;;;6.93;;
2001;SDS011;1003;48.002;7.788;2022-07-24T06:07:44;7.25;;;6.60;;
2001;SDS011;1003;48.002;7.788;2022-07-24T06:10:11;7.40;;;6.70;;
2001;SDS011;1003;48.002;7.788;2022-07-24T06:12:38;7.38;;;6.72;;
2001;SDS011;1003;48.002;7.788;2022-07-24T06:15:08;7.57;;;6.72;;
2001;SDS011;1003;48.002;7.788;2022-07-24T06:17:35;7.25;;;6.65;;
2001;SDS011;1003;48.002;7.788;2022-07-24T06:20:03;7.88;;;5.82;;
2001;SDS011;1003;48.002;7.788;2022-07-24T06:22:31;7.13;;;6.43;;
2001;SDS011;1003;48.002;7.788;2022-07-24T06:24:59;6.47;;;5.97;;
2001;SDS011;1003;48.002;7.788;2022-07-24T06:27:26;7.38;;;6.47;;
2001;SDS011;1003;48.002;7.788;2022-07-24T06:29:53;6.57;;;5.78;;
2001;SDS011;1003;48.002;7.788;2022-07-24T06:32:22;6.47;;;5.82;;
2001;SDS011;1003;48.002;7.788;2022-07-24T06:34:49;6.65;;;6.05;;
2001;SDS011;1003;48.002;7.788;2022-07-24T06:37:16;6.85;;;6.25;;
2001;SDS011;1003;48.002;7.788;2022-07-24T06:39:43;6.50;;;5.90;;
2001;SDS011;1003;48.002;7.788;2022-07-24T06:42:10;6.20;;;5.70;;
2001;SDS011;1003;48.002;7.788;2022-07-24T06:44:37;6.43;;;5.82;;
2001;SDS011;1003;48.002;7.788;2022-07-24T06:47:04;6.10;;;5.50;;
2001;SDS011;1003;48.002;7.788;2022-07-24T06:49:33;6.07;;;5.47;;
2001;SDS011;1003;48.002;7.788;2022-07-24T06:52:00;7.00;;;5.80;;
2001;SDS011;1003;48.002;7.788;2022-07-24T06:54:27;6.97;;;6.18;;
2001;SDS011;1003;48.002;7.788;2022-07-24T06:56:54;6.45;;;5.80;;
2001;SDS011;1003;48.002;7.788;2022-07-24T06:59:21;5.90;;;5.40;;
2001;SDS011;1003;48.002;7.788;2022-07-24T07:01:48;7.20;;;6.45;;
2001;SDS011;1003;48.002;7.788;2022-07-24T07:04:15;8.32;;;6.40;;
2001;SDS011;1003;48.002;7.788;2022-07-24T07:06:44;7.00;;;6.30;;
2001;SDS011;1003;48.002;7.788;2022-07-24T07:09:11;6.60;;;6.00;;
2001;SDS011;1003;48.002;7.788;2022-07-24T07:11:38;6.38;;;5.78;;
2001;SDS011;1003;48.002;7.788;2022-07-24T07:14:05;7.55;;;6.70;;
2001;SDS011;1003;48.002;7.788;2022-07-24T07:16:33;6.32;;;5.72;;
2001;SDS011;1003;48.002;7.788;2022-07-24T07:19:00;6.35;;;5.75;;
2001;SDS011;1003;48.002;7.788;2022-07-24T07:21:27;7.03;;;6.40;;
2001;SDS011;1003;48.002;7.788;2022-07-24T07:23:56;6.43;;;5.78;;
2001;SDS011;1003;48.002;7.788;2022-07-24T07:26:23;6.07;;;5.30;;
2001;SDS011;1003;48.002;7.788;2022-07-24T07:28:50;6.78;;;6.07;;
2001;SDS011;1003;48.002;7.788;2022-07-24T07:31:17;7.35;;;5.93;;
2001;SDS011;1003;48.002;7.788;2022-07-24T07:33:44;6.43;;;5.57;;
2001;SDS011;1003;48.002;7.788;2022-07-24T07:36:11;6.35;;;5.72;;
2001;SDS011;1003;48.002;7.788;2022-07-24T07:38:39;6.95;;;6.07;;
2001;SDS011;1003;48.002;7.788;2022-07-24T07:41:07;7.10;;;5.75;;
2001;SDS011;1003;48.002;7.788;2022-07-24T07:43:34;8.32;;;6.40;;
2001;SDS011;1003;48.002;7.788;2022-07-24T07:46:02;7.18;;;6.10;;
2001;SDS011;1003;48.002;7.788;2022-07-24T07:48:30;6.40;;;5.80;;
2001;SDS011;1003;48.002;7.788;2022-07-24T07:50:57;7.22;;;6.53;;
2001;SDS011;1003;48.002;7.788;2022-07-24T07:53:24;6.97;;;6.28;;
2001;SDS011;1003;48.002;7.788;2022-07-24T07:55:51;7.32;;;6.10;;
2001;SDS011;1003;48.002;7.788;2022-07-24T07:58:20;6.87;;;6.10;;
2001;SDS011;1003;48.002;7.788;2022-07-24T08:00:47;8.13;;;6.27;;
2001;SDS011;1003;48.002;7.788;2022-07-24T08:03:15;7.17;;;6.07;;
2001;SDS011;1003;48.002;7.788;2022-07-24T08:05:42;6.60;;;5.72;;
2001;SDS011;1003;48.002;7.788;2022-07-24T08:08:09;7.33;;;6.63;;
2001;SDS011;1003;48.002;7.788;2022-07-24T08:10:37;7.47;;;6.57;;
2001;SDS011;1003;48.002;7.788;2022-07-24T08:13:04;7.67;;;6.80;;
2001;SDS011;1003;48.002;7.788;2022-07-24T08:15:32;6.80;;;6.13;;
2001;SDS011;1003;48.002;7.788;2022-07-24T08:18:02;6.90;;;6.20;;
2001;SDS011;1003;48.002;7.788;2022-07-24T08:20:30;6.17;;;5.57;;
2001;SDS011;1003;48.002;7.788;2022-07-24T08:22:57;7.80;;;6.93;;
2001;SDS011;1003;48.002;7.788;2022-07-24T08:25:25;6.67;;;5.97;;
2001;SDS011;1003;48.002;7.788;2022-07-24T08:27:52;6.93;;;6.13;;
2001;SDS011;1003;48.002;7.788;2022-07-24T08:30:19;6.67;;;6.00;;
2001;SDS011;1003;48.002;7.788;2022-07-24T08:32:50;7.30;;;6.13;;
2001;SDS011;1003;48.002;7.788;2022-07-24T08:35:17;6.90;;;5.90;;
2001;SDS011;1003;48.002;7.788;2022-07-24T08:37:45;6.53;;;5.83;;
2001;SDS011;1003;48.002;7.788;2022-07-24T08:40:12;7.87;;;6.10;;
2001;SDS011;1003;48.002;7.788;2022-07-24T08:42:41;8.00;;;5.97;;
2001;SDS011;1003;48.002;7.788;2022-07-24T08:45:08;8.77;;;6.17;;
2001;SDS011;1003;48.002;7.788;2022-07-24T08:47:37;5.93;;;5.33;;
2001;SDS011;1003;48.002;7.788;2022-07-24T08:50:08;6.43;;;5.83;;
2001;SDS011;1003;48.002;7.788;2022-07-24T08:52:36;7.57;;;5.87;;
2001;SDS011;1003;48.002;7.788;2022-07-24T08:55:05;6.50;;;5.77;;
2001;SDS011;1003;48.002;7.788;2022-07-24T08:57:33;7.30;;;5.40;;
2001;SDS011;1003;48.002;7.788;2022-07-24T09:00:00;7.07;;;5.57;;
2001;SDS011;1003;48.002;7.788;2022-07-24T09:02:27;6.87;;;5.83;;
2001;SDS011;1003;48.002;7.788;2022-07-24T09:04:58;7.00;;;6.13;;
2001;SDS011;1003;48.002;7.788;2022-07-24T09:07:28;6.70;;;5.80;;
2001;SDS011;1003;48.002;7.788;2022-07-24T09:09:57;7.60;;;5.87;;
2001;SDS011;1003;48.002;7.788;2022-07-24T09:12:29;6.60;;;5.67;;
2001;SDS011;1003;48.002;7.788;2022-07-24T09:14:59;6.97;;;6.07;;
2001;SDS011;1003;48.002;7.788;2022-07-24T09:17:27;6.27;;;5.67;;
2001;SDS011;1003;48.002;7.788;2022-07-24T09:19:55;7.30;;;6.03;;
2001;SDS011;1003;48.002;7.788;2022-07-24T09:22:26;7.30;;;6.03;;
2001;SDS011;1003;48.002;7.788;2022-07-24T09:25:05;6.70;;;6.00;;
2001;SDS011;1003;48.002;7.788;2022-07-24T09:27:39;7.23;;;5.83;;
2001;SDS011;1003;48.002;7.788;2022-07-24T09:30:21;6.10;;;5.50;;
2001;SDS011;1003;48.002;7.788;2022-07-24T09:32:53;6.77;;;5.33;;
2001;SDS011;1003;48.002;7.788;2022-07-24T09:35:22;7.67;;;6.00;;
2001;SDS011;1003;48.002;7.788;2022-07-24T09:37:58;7.07;;;6.10;;
2001;SDS011;1003;48.002;7.788;2022-07-24T09:40:28;6.67;;;5.73;;
2001;SDS011;1003;48.002;7.788;2022-07-24T09:43:18;7.00;;;6.30;;
2001;SDS011;1003;48.002;7.788;2022-07-24T09:45:56;7.20;;;5.47;;
2001;SDS011;1003;48.002;7.788;2022-07-24T09:48:28;5.90;;;5.30;;
2001;SDS011;1003;48.002;7.788;2022-07-24T09:50:58;7.57;;;5.97;;
2001;SDS011;1003;48.002;7.788;2022-07-24T09:53:29;6.23;;;5.70;;
2001;SDS011;1003;48.002;7.788;2022-07-24T09:56:01;6.33;;;5.73;;
2001;SDS011;1003;48.002;7.788;2022-07-24T09:58:31;7.07;;;5.77;;
2001;SDS011;1003;48.002;7.788;2022-07-24T10:01:02;8.70;;;6.10;;
2001;SDS011;1003;48.002;7.788;2022-07-24T10:03:32;6.90;;;6.20;;
2001;SDS011;1003;48.002;7.788;2022-07-24T10:06:04;7.83;;;6.23;;
2001;SDS011;1003;48.002;7.788;2022-07-24T10:08:35;6.53;;;5.83;;
2001;SDS011;1003;48.002;7.788;2022-07-24T10:11:06;7.00;;;6.30;;
2001;SDS011;1003;48.002;7.788;2022-07-24T10:13:35;7.10;;;6.40;;
2001;SDS011;1003;48.002;7.788;2022-07-24T10:18:58;7.07;;;6.10;;
2001;SDS011;1003;48.002;7.788;2022-07-24T10:21:28;6.60;;;5.87;;
2001;SDS011;1003;48.002;7.788;2022-07-24T10:27:22;6.20;;;5.60;;
2001;SDS011;1003;48.002;7.788;2022-07-24T10:29:54;6.30;;;5.70;;
2001;SDS011;1003;48.002;7.788;2022-07-24T10:32:24;6.27;;;5.60;;
2001;SDS011;1003;48.002;7.788;2022-07-24T10:34:57;6.90;;;6.20;;
2001;SDS011;1003;48.002;7.788;2022-07-24T10:37:45;6.23;;;5.63;;
2001;SDS011;1003;48.002;7.788;2022-07-24T10:40:28;6.40;;;5.80;;
2001;SDS011;1003;48.002;7.788;2022-07-24T10:43:11;7.63;;;6.00;;
2001;SDS011;1003;48.002;7.788;2022-07-24T10:45:41;7.30;;;6.50;;
2001;SDS011;1003;48.002;7.788;2022-07-24T10:48:30;7.37;;;6.30;;
2001;SDS011;1003;48.002;7.788;2022-07-24T10:51:02;7.23;;;6.00;;
2001;SDS011;1003;48.002;7.788;2022-07-24T10:53:51;9.77;;;6.70;;
2001;SDS011;1003;48.002;7.788;2022-07-24T10:56:26;6.87;;;6.10;;
2001;SDS011;1003;48.002;7.788;2022-07-24T10:59:04;6.47;;;5.70;;
2001;SDS011;1003;48.002;7.788;2022-07-24T11:01:35;7.03;;;5.83;;
2001;SDS011;1003;48.002;7.788;2022-07-24T11:06:56;7.17;;;5.43;;
2001;SDS011;1003;48.002;7.788;2022-07-24T11:09:52;7.00;;;6.30;;
2001;SDS011;1003;48.002;7.788;2022-07-24T11:12:27;6.97;;;5.87;;
2001;SDS011;1003;48.002;7.788;2022-07-24T11:14:59;6.83;;;6.13;;
2001;SDS011;1003;48.002;7.788;2022-07-24T11:17:42;6.97;;;6.20;;
2001;SDS011;1003;48.002;7.788;2022-07-24T11:20:13;7.20;;;6.20;;
2001;SDS011;1003;48.002;7.788;2022-07-24T11:22:43;8.60;;;5.90;;
2001;SDS011;1003;48.002;7.788;2022-07-24T11:25:14;6.83;;;6.03;;
2001;SDS011;1003;48.002;7.788;2022-07-24T11:27:47;6.57;;;5.33;;
2001;SDS011;1003;48.002;7.788;2022-07-24T11:30:25;6.80;;;5.60;;
2001;SDS011;1003;48.002;7.788;2022-07-24T11:32:55;5.97;;;5.37;;
2001;SDS011;1003;48.002;7.788;2022-07-24T11:35:29;7.60;;;5.90;;
2001;SDS011;1003;48.002;7.788;2022-07-24T11:38:00;7.70;;;6.30;;
2001;SDS011;1003;48.002;7.788;2022-07-24T11:40:30;6.70;;;6.00;;
2001;SDS011;1003;48.002;7.788;2022-07-24T11:43:01;7.43;;;6.60;;
2001;SDS011;1003;48.002;7.788;2022-07-24T11:45:31;6.93;;;6.20;;
2001;SDS011;1003;48.002;7.788;2022-07-24T11:47:59;6.90;;;6.10;;
2001;SDS011;1003;48.002;7.788;2022-07-24T11:50:26;6.17;;;5.57;;
2001;SDS011;1003;48.002;7.788;2022-07-24T11:52:54;6.60;;;5.87;;
2001;SDS011;1003;48.002;7.788;2022-07-24T11:55:21;7.83;;;6.40;;
2001;SDS011;1003;48.002;7.788;2022-07-24T11:57:51;7.27;;;5.93;;
2001;SDS011;1003;48.002;7.788;2022-07-24T12:00:23;6.93;;;6.23;;
2001;SDS011;1003;48.002;7.788;2022-07-24T12:02:53;6.57;;;5.97;;
2001;SDS011;1003;48.002;7.788;2022-07-24T12:05:23;6.90;;;6.20;;
2001;SDS011;1003;48.002;7.788;2022-07-24T12:07:52;7.40;;;6.10;;
2001;SDS011;1003;48.002;7.788;2022-07-24T12:10:21;7.53;;;6.00;;
2001;SDS011;1003;48.002;7.788;2022-07-24T12:12:49;6.40;;;5.80;;
2001;SDS011;1003;48.002;7.788;2022-07-24T12:15:21;6.43;;;5.70;;
2001;SDS011;1003;48.002;7.788;2022-07-24T12:17:56;7.33;;;6.27;;
2001;SDS011;1003;48.002;7.788;2022-07-24T12:20:26;7.17;;;6.43;;
2001;SDS011;1003;48.002;7.788;2022-07-24T12:22:56;6.33;;;5.77;;
2001;SDS011;1003;48.002;7.788;2022-07-24T12:25:25;7.00;;;5.90;;
2001;SDS011;1003;48.002;7.788;2022-07-24T12:28:01;10.03;;;6.10;;
2001;SDS011;1003;48.002;7.788;2022-07-24T12:30:32;7.30;;;5.83;;
2001;SDS011;1003;48.002;7.788;2022-07-24T12:33:03;6.33;;;5.70;;
2001;SDS011;1003;48.002;7.788;2022-07-24T12:35:33;6.90;;;6.20;;
2001;SDS011;1003;48.002;7.788;2022-07-24T12:38:22;6.70;;;6.00;;
2001;SDS011;1003;48.002;7.788;2022-07-24T12:40:51;6.60;;;6.00;;
2001;SDS011;1003;48.002;7.788;2022-07-24T12:43:28;6.23;;;5.53;;
2001;SDS011;1003;48.002;7.788;2022-07-24T12:46:05;6.20;;;5.60;;
2001;SDS011;1003;48.002;7.788;2022-07-24T12:48:34;6.47;;;5.83;;
2001;SDS011;1003;48.002;7.788;2022-07-24T12:51:06;7.60;;;5.97;;
2001;SDS011;1003;48.002;7.788;2022-07-24T12:53:36;6.27;;;5.67;;
2001;SDS011;1003;48.002;7.788;2022-07-24T12:56:07;6.17;;;5.57;;
2001;SDS011;1003;48.002;7.788;2022-07-24T13:01:44;7.43;;;6.00;;
2001;SDS011;1003;48.002;7.788;2022-07-24T13:04:15;8.53;;;6.37;;
2001;SDS011;1003;48.002;7.788;2022-07-24T13:06:45;6.17;;;5.57;;
2001;SDS011;1003;48.002;7.788;2022-07-24T13:09:16;7.40;;;6.30;;
2001;SDS011;1003;48.002;7.788;2022-07-24T13:11:44;6.43;;;5.53;;
2001;SDS011;1003;48.002;7.788;2022-07-24T13:14:14;6.87;;;6.17;;
2001;SDS011;1003;48.002;7.788;2022-07-24T13:16:47;6.17;;;5.57;;
2001;SDS011;1003;48.002;7.788;2022-07-24T13:19:16;6.70;;;6.00;;
2001;SDS011;1003;48.002;7.788;2022-07-24T13:21:45;7.77;;;5.70;;
2001;SDS011;1003;48.002;7.788;2022-07-24T13:24:14;7.73;;;5.97;;
2001;SDS011;1003;48.002;7.788;2022-07-24T13:26:43;6.50;;;5.70;;
2001;SDS011;1003;48.002;7.788;2022-07-24T13:29:11;6.47;;;5.87;;
2001;SDS011;1003;48.002;7.788;2022-07-24T13:31:39;6.40;;;5.80;;
2001;SDS011;1003;48.002;7.788;2022-07-24T13:34:10;5.97;;;5.40;;
2001;SDS011;1003;48.002;7.788;2022-07-24T13:36:37;6.60;;;6.00;;
2001;SDS011;1003;48.002;7.788;2022-07-24T13:39:05;6.70;;;5.90;;
2001;SDS011;1003;48.002;7.788;2022-07-24T13:41:33;6.10;;;5.20;;
2001;SDS011;1003;48.002;7.788;2022-07-24T13:44:01;6.27;;;5.67;;
2001;SDS011;1003;48.002;7.788;2022-07-24T13:46:30;8.80;;;5.87;;
2001;SDS011;1003;48.002;7.788;2022-07-24T13:48:59;6.40;;;5.80;;
2001;SDS011;1003;48.002;7.788;2022-07-24T13:51:30;6.07;;;5.30;;
2001;SDS011;1003;48.002;7.788;2022-07-24T13:53:57;5.67;;;5.17;;
2001;SDS011;1003;48.002;7.788;2022-07-24T13:56:25;6.70;;;6.10;;
2001;SDS011;1003;48.002;7.788;2022-07-24T13:58:52;7.00;;;5.77;;
2001;SDS011;1003;48.002;7.788;2022-07-24T14:01:19;7.27;;;5.63;;
2001;SDS011;1003;48.002;7.788;2022-07-24T14:03:47;6.53;;;5.70;;
2001;SDS011;1003;48.002;7.788;2022-07-24T14:06:14;6.40;;;5.13;;
2001;SDS011;1003;48.002;7.788;2022-07-24T14:08:42;5.97;;;5.33;;
2001;SDS011;1003;48.002;7.788;2022-07-24T14:11:09;6.17;;;5.57;;
2001;SDS011;1003;48.002;7.788;2022-07-24T14:13:36;7.27;;;6.00;;
2001;SDS011;1003;48.002;7.788;2022-07-24T14:16:04;6.03;;;5.40;;
2001;SDS011;1003;48.002;7.788;2022-07-24T14:18:32;6.87;;;5.60;;
2001;SDS011;1003;48.002;7.788;2022-07-24T14:20:59;7.33;;;6.17;;
2001;SDS011;1003;48.002;7.788;2022-07-24T14:23:26;6.27;;;5.67;;
2001;SDS011;1003;48.002;7.788;2022-07-24T14:25:54;6.10;;;5.50;;
2001;SDS011;1003;48.002;7.788;2022-07-24T14:28:22;6.17;;;5.40;;
2001;SDS011;1003;48.002;7.788;2022-07-24T14:30:49;6.07;;;5.43;;
2001;SDS011;1003;48.002;7.788;2022-07-24T14:33:16;6.20;;;5.60;;
2001;SDS011;1003;48.002;7.788;2022-07-24T14:35:43;6.20;;;5.67;;
2001;SDS011;1003;48.002;7.788;2022-07-24T14:38:11;7.07;;;5.77;;
2001;SDS011;1003;48.002;7.788;2022-07-24T14:40:38;6.17;;;5.57;;
2001;SDS011;1003;48.002;7.788;2022-07-24T14:43:06;5.47;;;4.97;;
2001;SDS011;1003;48.002;7.788;2022-07-24T14:45:38;5.90;;;5.40;;
2001;SDS011;1003;48.002;7.788;2022-07-24T14:48:05;6.20;;;5.60;;
2001;SDS011;1003;48.002;7.788;2022-07-24T14:50:32;6.10;;;5.50;;
2001;SDS011;1003;48.002;7.788;2022-07-24T14:52:59;5.43;;;4.93;;
2001;SDS011;1003;48.002;7.788;2022-07-24T14:55:27;5.93;;;5.33;;
2001;SDS011;1003;48.002;7.788;2022-07-24T14:57:54;6.97;;;5.47;;
2001;SDS011;1003;48.002;7.788;2022-07-24T15:00:24;6.37;;;5.77;;
2001;SDS011;1003;48.002;7.788;2022-07-24T15:02:51;7.53;;;5.33;;
2001;SDS011;1003;48.002;7.788;2022-07-24T15:05:18;5.53;;;4.93;;
2001;SDS011;1003;48.002;7.788;2022-07-24T15:07:45;6.23;;;5.17;;
2001;SDS011;1003;48.002;7.788;2022-07-24T15:10:12;7.03;;;5.57;;
2001;SDS011;1003;48.002;7.788;2022-07-24T15:12:40;7.47;;;5.27;;
2001;SDS011;1003;48.002;7.788;2022-07-24T15:15:07;6.05;;;5.38;;
2001;SDS011;1003;48.002;7.788;2022-07-24T15:17:37;5.70;;;5.13;;
2001;SDS011;1003;48.002;7.788;2022-07-24T15:20:04;8.10;;;5.20;;
2001;SDS011;1003;48.002;7.788;2022-07-24T15:22:32;6.23;;;5.60;;
2001;SDS011;1003;48.002;7.788;2022-07-24T15:24:59;6.25;;;5.55;;
2001;SDS011;1003;48.002;7.788;2022-07-24T15:27:26;5.23;;;4.73;;
2001;SDS011;1003;48.002;7.788;2022-07-24T15:29:53;6.37;;;5.23;;
2001;SDS011;1003;48.002;7.788;2022-07-24T15:32:20;6.20;;;5.60;;